Terminal Aerodrome Forecast
Issued by NWS

Home | Current Version | Previous Version | Text Only | Print | Product List | Glossary On
Versions: 1 2 3 4 5 6 7 8 9 10 11 12 13
000
FTUS46 KSGX 251738
TAFTRM
TAF
KTRM 251738Z 2518/2618 33015G25KT P6SM BKN250
     FM252100 30020G30KT P6SM FEW080 BKN250
     FM260000 31025G35KT 3SM BLDU SCT250
     FM260600 33015G25KT P6SM SKC=

USA.gov is the U.S. government's official web portal to all federal, state and local government web resources and services.